sensor_id;sensor_type;location;lat;lon;timestamp;pressure;altitude;pressure_sealevel;temperature;humidity
76074;BME280;64776;42.636;24.358;2024-01-30T00:02:32;91723.41;;;-6.72;84.21
76074;BME280;64776;42.636;24.358;2024-01-30T00:05:33;91729.03;;;-6.70;83.81
76074;BME280;64776;42.636;24.358;2024-01-30T00:08:34;91730.19;;;-6.68;83.40
76074;BME280;64776;42.636;24.358;2024-01-30T00:11:35;91741.78;;;-6.77;83.29
76074;BME280;64776;42.636;24.358;2024-01-30T00:14:35;91735.22;;;-6.99;84.70
76074;BME280;64776;42.636;24.358;2024-01-30T00:17:37;91733.59;;;-7.03;84.99
76074;BME280;64776;42.636;24.358;2024-01-30T00:20:39;91736.28;;;-6.88;84.66
76074;BME280;64776;42.636;24.358;2024-01-30T00:23:39;91739.19;;;-6.77;83.94
76074;BME280;64776;42.636;24.358;2024-01-30T00:26:40;91745.59;;;-6.87;84.27
76074;BME280;64776;42.636;24.358;2024-01-30T00:29:41;91737.69;;;-6.90;84.54
76074;BME280;64776;42.636;24.358;2024-01-30T00:32:44;91733.25;;;-6.90;84.36
76074;BME280;64776;42.636;24.358;2024-01-30T00:35:44;91743.63;;;-6.90;84.74
76074;BME280;64776;42.636;24.358;2024-01-30T00:38:45;91745.16;;;-7.13;84.54
76074;BME280;64776;42.636;24.358;2024-01-30T00:41:46;91745.03;;;-6.92;84.58
76074;BME280;64776;42.636;24.358;2024-01-30T00:44:46;91750.34;;;-6.89;83.27
76074;BME280;64776;42.636;24.358;2024-01-30T00:47:48;91750.56;;;-6.94;84.27
76074;BME280;64776;42.636;24.358;2024-01-30T00:50:49;91744.94;;;-6.96;84.36
76074;BME280;64776;42.636;24.358;2024-01-30T00:53:50;91735.78;;;-7.05;84.50
76074;BME280;64776;42.636;24.358;2024-01-30T00:56:51;91738.88;;;-6.88;83.63
76074;BME280;64776;42.636;24.358;2024-01-30T00:59:51;91736.84;;;-7.06;84.10
76074;BME280;64776;42.636;24.358;2024-01-30T01:02:54;91733.50;;;-7.07;84.12
76074;BME280;64776;42.636;24.358;2024-01-30T01:05:55;91724.94;;;-7.56;85.04
76074;BME280;64776;42.636;24.358;2024-01-30T01:08:56;91730.69;;;-7.50;86.44
76074;BME280;64776;42.636;24.358;2024-01-30T01:11:56;91735.63;;;-7.33;84.85
76074;BME280;64776;42.636;24.358;2024-01-30T01:14:57;91734.91;;;-7.21;85.39
76074;BME280;64776;42.636;24.358;2024-01-30T01:17:59;91733.59;;;-7.39;85.63
76074;BME280;64776;42.636;24.358;2024-01-30T01:21:00;91737.38;;;-7.25;85.45
76074;BME280;64776;42.636;24.358;2024-01-30T01:24:01;91738.44;;;-7.50;85.09
76074;BME280;64776;42.636;24.358;2024-01-30T01:27:02;91736.06;;;-7.43;85.31
76074;BME280;64776;42.636;24.358;2024-01-30T01:30:03;91725.94;;;-7.36;85.34
76074;BME280;64776;42.636;24.358;2024-01-30T01:33:06;91732.19;;;-7.25;84.25
76074;BME280;64776;42.636;24.358;2024-01-30T01:36:06;91731.13;;;-7.12;83.98
76074;BME280;64776;42.636;24.358;2024-01-30T01:39:07;91732.41;;;-7.30;84.26
76074;BME280;64776;42.636;24.358;2024-01-30T01:42:08;91725.28;;;-7.45;84.29
76074;BME280;64776;42.636;24.358;2024-01-30T01:45:09;91725.16;;;-7.36;84.63
76074;BME280;64776;42.636;24.358;2024-01-30T01:48:13;91743.56;;;-7.29;84.89
76074;BME280;64776;42.636;24.358;2024-01-30T01:51:14;91732.84;;;-7.40;84.62
76074;BME280;64776;42.636;24.358;2024-01-30T01:54:19;91736.50;;;-7.29;85.23
76074;BME280;64776;42.636;24.358;2024-01-30T01:57:21;91735.00;;;-7.30;85.09
76074;BME280;64776;42.636;24.358;2024-01-30T02:00:23;91736.63;;;-7.01;85.25
76074;BME280;64776;42.636;24.358;2024-01-30T02:03:25;91736.09;;;-6.95;84.13
76074;BME280;64776;42.636;24.358;2024-01-30T02:06:26;91747.09;;;-6.86;83.78
76074;BME280;64776;42.636;24.358;2024-01-30T02:09:27;91744.53;;;-7.10;85.15
76074;BME280;64776;42.636;24.358;2024-01-30T02:12:28;91738.91;;;-7.12;84.10
76074;BME280;64776;42.636;24.358;2024-01-30T02:15:29;91744.75;;;-7.03;84.97
76074;BME280;64776;42.636;24.358;2024-01-30T02:18:31;91750.66;;;-7.02;83.18
76074;BME280;64776;42.636;24.358;2024-01-30T02:21:33;91742.66;;;-7.33;83.79
76074;BME280;64776;42.636;24.358;2024-01-30T02:24:41;91750.25;;;-7.16;84.85
76074;BME280;64776;42.636;24.358;2024-01-30T02:27:42;91754.66;;;-7.29;84.85
76074;BME280;64776;42.636;24.358;2024-01-30T02:30:43;91731.75;;;-7.15;85.36
76074;BME280;64776;42.636;24.358;2024-01-30T02:33:44;91739.22;;;-6.89;83.70
76074;BME280;64776;42.636;24.358;2024-01-30T02:36:46;91729.69;;;-6.85;82.99
76074;BME280;64776;42.636;24.358;2024-01-30T02:39:47;91730.34;;;-6.88;82.55
76074;BME280;64776;42.636;24.358;2024-01-30T02:42:48;91735.75;;;-6.81;82.68
76074;BME280;64776;42.636;24.358;2024-01-30T02:45:48;91710.75;;;-6.74;83.16
76074;BME280;64776;42.636;24.358;2024-01-30T02:48:49;91733.91;;;-6.69;82.22
76074;BME280;64776;42.636;24.358;2024-01-30T02:51:53;91726.50;;;-6.54;82.39
76074;BME280;64776;42.636;24.358;2024-01-30T02:54:54;91738.41;;;-6.53;81.96
76074;BME280;64776;42.636;24.358;2024-01-30T02:57:55;91732.13;;;-6.52;82.98
76074;BME280;64776;42.636;24.358;2024-01-30T03:00:55;91747.00;;;-6.25;82.42
76074;BME280;64776;42.636;24.358;2024-01-30T03:03:56;91740.94;;;-6.29;82.55
76074;BME280;64776;42.636;24.358;2024-01-30T03:06:58;91744.75;;;-6.27;82.46
76074;BME280;64776;42.636;24.358;2024-01-30T03:09:59;91741.59;;;-6.32;82.14
76074;BME280;64776;42.636;24.358;2024-01-30T03:13:00;91733.13;;;-6.17;82.91
76074;BME280;64776;42.636;24.358;2024-01-30T03:16:00;91734.06;;;-6.10;82.86
76074;BME280;64776;42.636;24.358;2024-01-30T03:19:01;91730.38;;;-6.09;82.70
76074;BME280;64776;42.636;24.358;2024-01-30T03:22:03;91729.72;;;-6.33;81.89
76074;BME280;64776;42.636;24.358;2024-01-30T03:25:04;91731.78;;;-6.39;81.77
76074;BME280;64776;42.636;24.358;2024-01-30T03:28:05;91728.38;;;-6.27;81.66
76074;BME280;64776;42.636;24.358;2024-01-30T03:31:06;91721.66;;;-6.56;81.53
76074;BME280;64776;42.636;24.358;2024-01-30T03:34:07;91725.38;;;-6.29;82.65
76074;BME280;64776;42.636;24.358;2024-01-30T03:37:09;91719.63;;;-6.23;83.81
76074;BME280;64776;42.636;24.358;2024-01-30T03:40:11;91720.34;;;-6.10;82.72
76074;BME280;64776;42.636;24.358;2024-01-30T03:43:12;91717.41;;;-6.09;83.56
76074;BME280;64776;42.636;24.358;2024-01-30T03:46:12;91696.50;;;-5.85;84.25
76074;BME280;64776;42.636;24.358;2024-01-30T03:49:13;91700.75;;;-5.92;84.15
76074;BME280;64776;42.636;24.358;2024-01-30T03:52:17;91691.34;;;-5.81;84.41
76074;BME280;64776;42.636;24.358;2024-01-30T03:55:17;91707.88;;;-5.89;84.88
76074;BME280;64776;42.636;24.358;2024-01-30T03:58:18;91705.88;;;-5.96;85.33
76074;BME280;64776;42.636;24.358;2024-01-30T04:01:19;91709.13;;;-5.83;85.85
76074;BME280;64776;42.636;24.358;2024-01-30T04:04:20;91697.25;;;-5.84;85.51
76074;BME280;64776;42.636;24.358;2024-01-30T04:07:22;91692.53;;;-5.79;86.67
76074;BME280;64776;42.636;24.358;2024-01-30T04:10:23;91701.72;;;-5.69;86.79
76074;BME280;64776;42.636;24.358;2024-01-30T04:13:24;91713.03;;;-5.61;86.30
76074;BME280;64776;42.636;24.358;2024-01-30T04:16:25;91711.44;;;-5.50;86.23
76074;BME280;64776;42.636;24.358;2024-01-30T04:19:25;91714.38;;;-5.52;85.55
76074;BME280;64776;42.636;24.358;2024-01-30T04:22:27;91715.63;;;-5.61;86.32
76074;BME280;64776;42.636;24.358;2024-01-30T04:25:28;91717.72;;;-5.67;86.50
76074;BME280;64776;42.636;24.358;2024-01-30T04:28:29;91720.09;;;-5.46;85.96
76074;BME280;64776;42.636;24.358;2024-01-30T04:31:30;91724.34;;;-5.54;86.01
76074;BME280;64776;42.636;24.358;2024-01-30T04:34:30;91720.81;;;-5.46;85.76
76074;BME280;64776;42.636;24.358;2024-01-30T04:37:32;91731.84;;;-5.52;86.60
76074;BME280;64776;42.636;24.358;2024-01-30T04:40:33;91723.28;;;-5.37;85.27
76074;BME280;64776;42.636;24.358;2024-01-30T04:43:34;91714.72;;;-5.22;85.18
76074;BME280;64776;42.636;24.358;2024-01-30T04:46:35;91721.19;;;-5.32;84.93
76074;BME280;64776;42.636;24.358;2024-01-30T04:49:35;91710.28;;;-5.53;85.04
76074;BME280;64776;42.636;24.358;2024-01-30T04:52:38;91717.31;;;-5.38;84.52
76074;BME280;64776;42.636;24.358;2024-01-30T04:55:39;91725.38;;;-5.43;84.41
76074;BME280;64776;42.636;24.358;2024-01-30T04:58:39;91713.38;;;-5.47;84.97
76074;BME280;64776;42.636;24.358;2024-01-30T05:01:40;91723.84;;;-5.44;84.58
76074;BME280;64776;42.636;24.358;2024-01-30T05:04:41;91715.97;;;-5.47;83.75
76074;BME280;64776;42.636;24.358;2024-01-30T05:07:43;91717.81;;;-5.48;85.17
76074;BME280;64776;42.636;24.358;2024-01-30T05:10:44;91713.09;;;-5.58;84.84
76074;BME280;64776;42.636;24.358;2024-01-30T05:13:45;91718.66;;;-5.59;84.84
76074;BME280;64776;42.636;24.358;2024-01-30T05:16:46;91714.44;;;-5.64;85.50
76074;BME280;64776;42.636;24.358;2024-01-30T05:19:46;91711.50;;;-5.62;85.07
76074;BME280;64776;42.636;24.358;2024-01-30T05:22:48;91720.13;;;-5.74;85.32
76074;BME280;64776;42.636;24.358;2024-01-30T05:25:49;91713.53;;;-5.71;85.05
76074;BME280;64776;42.636;24.358;2024-01-30T05:28:50;91715.69;;;-5.73;84.86
76074;BME280;64776;42.636;24.358;2024-01-30T05:31:51;91710.41;;;-5.77;85.47
76074;BME280;64776;42.636;24.358;2024-01-30T05:34:51;91722.06;;;-5.71;84.32
76074;BME280;64776;42.636;24.358;2024-01-30T05:37:54;91706.41;;;-5.59;83.94
76074;BME280;64776;42.636;24.358;2024-01-30T05:40:55;91720.81;;;-5.77;84.14
76074;BME280;64776;42.636;24.358;2024-01-30T05:43:55;91729.28;;;-5.64;84.10
76074;BME280;64776;42.636;24.358;2024-01-30T05:46:56;91728.69;;;-5.58;82.99
76074;BME280;64776;42.636;24.358;2024-01-30T05:49:57;91734.00;;;-5.54;82.57
76074;BME280;64776;42.636;24.358;2024-01-30T05:52:59;91738.44;;;-5.55;82.58
76074;BME280;64776;42.636;24.358;2024-01-30T05:56:00;91747.34;;;-5.25;81.17
76074;BME280;64776;42.636;24.358;2024-01-30T05:59:01;91732.34;;;-5.16;80.82
76074;BME280;64776;42.636;24.358;2024-01-30T06:02:02;91727.47;;;-5.17;80.57
76074;BME280;64776;42.636;24.358;2024-01-30T06:05:03;91748.88;;;-5.24;81.20
76074;BME280;64776;42.636;24.358;2024-01-30T06:08:06;91741.81;;;-5.23;80.92
76074;BME280;64776;42.636;24.358;2024-01-30T06:11:10;91752.72;;;-5.33;81.28
76074;BME280;64776;42.636;24.358;2024-01-30T06:14:11;91749.97;;;-5.25;80.83
76074;BME280;64776;42.636;24.358;2024-01-30T06:17:12;91749.53;;;-4.96;80.01
76074;BME280;64776;42.636;24.358;2024-01-30T06:20:12;91756.75;;;-4.89;79.51
76074;BME280;64776;42.636;24.358;2024-01-30T06:23:14;91756.84;;;-4.70;79.36
76074;BME280;64776;42.636;24.358;2024-01-30T06:26:15;91767.00;;;-4.80;80.04
76074;BME280;64776;42.636;24.358;2024-01-30T06:29:16;91772.28;;;-4.77;79.03
76074;BME280;64776;42.636;24.358;2024-01-30T06:32:17;91758.22;;;-4.57;78.98
76074;BME280;64776;42.636;24.358;2024-01-30T06:35:18;91761.03;;;-4.81;78.59
76074;BME280;64776;42.636;24.358;2024-01-30T06:38:20;91761.88;;;-4.77;78.56
76074;BME280;64776;42.636;24.358;2024-01-30T06:41:21;91764.41;;;-4.96;79.73
76074;BME280;64776;42.636;24.358;2024-01-30T06:44:21;91771.19;;;-4.91;79.02
76074;BME280;64776;42.636;24.358;2024-01-30T06:47:22;91772.34;;;-4.73;78.95
76074;BME280;64776;42.636;24.358;2024-01-30T06:50:23;91764.69;;;-4.51;77.89
76074;BME280;64776;42.636;24.358;2024-01-30T06:53:25;91763.78;;;-4.58;78.50
76074;BME280;64776;42.636;24.358;2024-01-30T06:56:26;91782.47;;;-4.37;78.62
76074;BME280;64776;42.636;24.358;2024-01-30T06:59:26;91778.34;;;-4.38;77.00
76074;BME280;64776;42.636;24.358;2024-01-30T07:02:27;91781.03;;;-4.35;77.53
76074;BME280;64776;42.636;24.358;2024-01-30T07:05:28;91778.28;;;-4.42;77.70
76074;BME280;64776;42.636;24.358;2024-01-30T07:08:30;91768.16;;;-4.62;78.05
76074;BME280;64776;42.636;24.358;2024-01-30T07:11:31;91777.56;;;-4.73;78.95
76074;BME280;64776;42.636;24.358;2024-01-30T07:14:31;91772.06;;;-4.53;78.36
76074;BME280;64776;42.636;24.358;2024-01-30T07:17:32;91770.88;;;-4.40;77.96
76074;BME280;64776;42.636;24.358;2024-01-30T07:20:33;91769.19;;;-4.32;78.04
76074;BME280;64776;42.636;24.358;2024-01-30T07:23:35;91774.31;;;-4.36;78.10
76074;BME280;64776;42.636;24.358;2024-01-30T07:26:36;91783.16;;;-4.40;79.17
76074;BME280;64776;42.636;24.358;2024-01-30T07:29:37;91772.78;;;-4.56;78.99
76074;BME280;64776;42.636;24.358;2024-01-30T07:32:38;91762.31;;;-4.90;80.78
76074;BME280;64776;42.636;24.358;2024-01-30T07:35:38;91761.94;;;-4.58;80.10
76074;BME280;64776;42.636;24.358;2024-01-30T07:38:40;91777.69;;;-4.35;79.51
76074;BME280;64776;42.636;24.358;2024-01-30T07:41:41;91765.44;;;-4.16;78.72
76074;BME280;64776;42.636;24.358;2024-01-30T07:44:42;91765.44;;;-4.16;78.79
76074;BME280;64776;42.636;24.358;2024-01-30T07:47:43;91776.00;;;-4.08;78.65
76074;BME280;64776;42.636;24.358;2024-01-30T07:50:43;91774.72;;;-3.99;78.32
76074;BME280;64776;42.636;24.358;2024-01-30T07:53:53;91786.84;;;-3.87;77.75
76074;BME280;64776;42.636;24.358;2024-01-30T07:56:53;91776.97;;;-3.78;78.40
76074;BME280;64776;42.636;24.358;2024-01-30T07:59:54;91775.81;;;-3.81;79.28
76074;BME280;64776;42.636;24.358;2024-01-30T08:02:55;91778.41;;;-3.62;79.35
76074;BME280;64776;42.636;24.358;2024-01-30T08:05:56;91777.66;;;-3.62;78.67
76074;BME280;64776;42.636;24.358;2024-01-30T08:08:58;91777.41;;;-3.57;79.07
76074;BME280;64776;42.636;24.358;2024-01-30T08:11:59;91789.00;;;-3.55;79.07
76074;BME280;64776;42.636;24.358;2024-01-30T08:14:59;91773.03;;;-3.31;77.68
76074;BME280;64776;42.636;24.358;2024-01-30T08:18:00;91772.13;;;-3.19;77.32
76074;BME280;64776;42.636;24.358;2024-01-30T08:21:01;91774.41;;;-2.95;76.43
76074;BME280;64776;42.636;24.358;2024-01-30T08:24:05;91777.06;;;-2.91;75.82
76074;BME280;64776;42.636;24.358;2024-01-30T08:27:06;91770.44;;;-2.85;75.43
76074;BME280;64776;42.636;24.358;2024-01-30T08:30:07;91760.66;;;-2.66;75.00
76074;BME280;64776;42.636;24.358;2024-01-30T08:33:08;91759.13;;;-2.44;74.37
76074;BME280;64776;42.636;24.358;2024-01-30T08:36:09;91770.19;;;-2.28;73.51
76074;BME280;64776;42.636;24.358;2024-01-30T08:39:11;91774.13;;;-2.15;72.52
76074;BME280;64776;42.636;24.358;2024-01-30T08:42:12;91759.38;;;-2.00;72.52
76074;BME280;64776;42.636;24.358;2024-01-30T08:45:13;91768.72;;;-1.70;71.85
76074;BME280;64776;42.636;24.358;2024-01-30T08:48:14;91764.59;;;-1.71;71.31
76074;BME280;64776;42.636;24.358;2024-01-30T08:51:15;91771.63;;;-1.75;70.87
76074;BME280;64776;42.636;24.358;2024-01-30T08:54:17;91772.25;;;-1.85;70.96
76074;BME280;64776;42.636;24.358;2024-01-30T08:57:18;91767.03;;;-1.55;70.70
76074;BME280;64776;42.636;24.358;2024-01-30T09:00:19;91772.44;;;-1.01;70.18
76074;BME280;64776;42.636;24.358;2024-01-30T09:03:19;91764.47;;;-0.71;67.61
76074;BME280;64776;42.636;24.358;2024-01-30T09:06:20;91768.06;;;-0.90;67.25
76074;BME280;64776;42.636;24.358;2024-01-30T09:09:22;91754.19;;;-1.30;67.50
76074;BME280;64776;42.636;24.358;2024-01-30T09:12:23;91760.94;;;-1.29;68.04
76074;BME280;64776;42.636;24.358;2024-01-30T09:15:24;91752.66;;;-0.95;67.08
76074;BME280;64776;42.636;24.358;2024-01-30T09:18:25;91756.28;;;-0.66;65.94
76074;BME280;64776;42.636;24.358;2024-01-30T09:21:25;91758.28;;;-0.96;66.39
76074;BME280;64776;42.636;24.358;2024-01-30T09:24:28;91762.69;;;-1.04;67.75
76074;BME280;64776;42.636;24.358;2024-01-30T09:27:28;91754.66;;;-0.81;65.44
76074;BME280;64776;42.636;24.358;2024-01-30T09:30:29;91746.19;;;-1.08;65.83
76074;BME280;64776;42.636;24.358;2024-01-30T09:33:30;91749.84;;;-0.75;66.78
76074;BME280;64776;42.636;24.358;2024-01-30T09:36:31;91750.91;;;-0.80;65.69
76074;BME280;64776;42.636;24.358;2024-01-30T09:39:33;91755.22;;;-1.02;66.29
76074;BME280;64776;42.636;24.358;2024-01-30T09:42:35;91754.97;;;-0.90;64.71
76074;BME280;64776;42.636;24.358;2024-01-30T09:45:36;91744.56;;;-1.19;65.83
76074;BME280;64776;42.636;24.358;2024-01-30T09:48:37;91754.66;;;-1.54;65.35
76074;BME280;64776;42.636;24.358;2024-01-30T09:51:39;91743.34;;;-1.66;67.09
76074;BME280;64776;42.636;24.358;2024-01-30T09:54:41;91748.97;;;-1.30;67.35
76074;BME280;64776;42.636;24.358;2024-01-30T09:57:42;91748.28;;;-1.24;65.36
76074;BME280;64776;42.636;24.358;2024-01-30T10:00:43;91758.31;;;-1.29;65.75
76074;BME280;64776;42.636;24.358;2024-01-30T10:03:44;91751.97;;;-1.65;65.50
76074;BME280;64776;42.636;24.358;2024-01-30T10:06:45;91754.38;;;-1.49;65.82
76074;BME280;64776;42.636;24.358;2024-01-30T10:09:48;91753.09;;;-1.63;66.99
76074;BME280;64776;42.636;24.358;2024-01-30T10:12:48;91746.00;;;-1.25;66.06
76074;BME280;64776;42.636;24.358;2024-01-30T10:15:49;91738.94;;;-0.85;65.71
76074;BME280;64776;42.636;24.358;2024-01-30T10:18:50;91736.13;;;-1.02;66.30
76074;BME280;64776;42.636;24.358;2024-01-30T10:21:51;91738.94;;;-0.85;64.83
76074;BME280;64776;42.636;24.358;2024-01-30T10:24:53;91741.13;;;-0.87;64.75
76074;BME280;64776;42.636;24.358;2024-01-30T10:27:54;91745.44;;;-1.45;66.39
76074;BME280;64776;42.636;24.358;2024-01-30T10:30:58;91735.53;;;-1.25;67.15
76074;BME280;64776;42.636;24.358;2024-01-30T10:33:59;91742.06;;;-0.65;64.47
76074;BME280;64776;42.636;24.358;2024-01-30T10:37:07;91741.56;;;-0.81;63.92
76074;BME280;64776;42.636;24.358;2024-01-30T10:40:13;91738.44;;;-0.50;64.49
76074;BME280;64776;42.636;24.358;2024-01-30T10:43:15;91738.56;;;-0.29;64.42
76074;BME280;64776;42.636;24.358;2024-01-30T10:46:19;91747.09;;;0.19;64.79
76074;BME280;64776;42.636;24.358;2024-01-30T10:49:21;91751.72;;;0.43;62.98
76074;BME280;64776;42.636;24.358;2024-01-30T10:52:24;91747.72;;;-0.02;63.47
76074;BME280;64776;42.636;24.358;2024-01-30T10:55:28;91744.03;;;0.07;63.62
76074;BME280;64776;42.636;24.358;2024-01-30T10:58:30;91742.31;;;-0.30;64.40
76074;BME280;64776;42.636;24.358;2024-01-30T11:01:31;91742.53;;;0.06;64.35
76074;BME280;64776;42.636;24.358;2024-01-30T11:04:43;91733.88;;;1.26;61.50
76074;BME280;64776;42.636;24.358;2024-01-30T11:07:44;91725.63;;;1.67;58.84
76074;BME280;64776;42.636;24.358;2024-01-30T11:10:46;91721.84;;;1.78;59.78
76074;BME280;64776;42.636;24.358;2024-01-30T11:13:50;91720.34;;;1.59;60.70
76074;BME280;64776;42.636;24.358;2024-01-30T11:16:50;91703.72;;;2.08;58.70
76074;BME280;64776;42.636;24.358;2024-01-30T11:19:51;91702.16;;;2.32;57.95
76074;BME280;64776;42.636;24.358;2024-01-30T11:22:53;91700.88;;;2.72;56.09
76074;BME280;64776;42.636;24.358;2024-01-30T11:25:56;91693.56;;;3.00;55.76
76074;BME280;64776;42.636;24.358;2024-01-30T11:28:57;91693.59;;;2.93;55.05
76074;BME280;64776;42.636;24.358;2024-01-30T11:31:58;91692.91;;;2.82;55.96
76074;BME280;64776;42.636;24.358;2024-01-30T11:34:59;91701.03;;;3.05;55.07
76074;BME280;64776;42.636;24.358;2024-01-30T11:38:01;91695.81;;;2.98;54.45
76074;BME280;64776;42.636;24.358;2024-01-30T11:41:03;91680.75;;;2.23;56.06
76074;BME280;64776;42.636;24.358;2024-01-30T11:44:05;91683.09;;;1.93;57.25
76074;BME280;64776;42.636;24.358;2024-01-30T11:47:06;91694.84;;;1.32;58.72
76074;BME280;64776;42.636;24.358;2024-01-30T11:50:07;91683.56;;;0.96;59.37
76074;BME280;64776;42.636;24.358;2024-01-30T11:53:08;91680.19;;;1.17;57.53
76074;BME280;64776;42.636;24.358;2024-01-30T11:56:12;91680.53;;;0.83;58.97
76074;BME280;64776;42.636;24.358;2024-01-30T11:59:13;91692.06;;;0.40;59.17
76074;BME280;64776;42.636;24.358;2024-01-30T12:02:16;91686.91;;;0.86;60.30
76074;BME280;64776;42.636;24.358;2024-01-30T12:05:19;91680.88;;;0.68;61.20
76074;BME280;64776;42.636;24.358;2024-01-30T12:08:19;91680.53;;;0.80;60.70
76074;BME280;64776;42.636;24.358;2024-01-30T12:11:22;91678.81;;;0.09;62.00
76074;BME280;64776;42.636;24.358;2024-01-30T12:14:23;91672.88;;;0.29;62.65
76074;BME280;64776;42.636;24.358;2024-01-30T12:17:26;91670.75;;;0.77;61.30
76074;BME280;64776;42.636;24.358;2024-01-30T12:20:27;91667.03;;;1.03;59.87
76074;BME280;64776;42.636;24.358;2024-01-30T12:23:28;91663.25;;;1.56;59.04
76074;BME280;64776;42.636;24.358;2024-01-30T12:26:30;91665.06;;;1.88;58.03
76074;BME280;64776;42.636;24.358;2024-01-30T12:29:32;91655.84;;;2.41;54.46
76074;BME280;64776;42.636;24.358;2024-01-30T12:32:34;91650.22;;;2.36;55.44
76074;BME280;64776;42.636;24.358;2024-01-30T12:35:35;91656.91;;;1.05;56.87
76074;BME280;64776;42.636;24.358;2024-01-30T12:38:36;91655.03;;;1.19;58.39
76074;BME280;64776;42.636;24.358;2024-01-30T12:41:39;91652.38;;;1.40;58.28
76074;BME280;64776;42.636;24.358;2024-01-30T12:44:39;91652.75;;;1.39;57.69
76074;BME280;64776;42.636;24.358;2024-01-30T12:47:41;91647.88;;;0.81;58.27
76074;BME280;64776;42.636;24.358;2024-01-30T12:50:41;91643.28;;;0.39;59.88
76074;BME280;64776;42.636;24.358;2024-01-30T12:53:42;91637.72;;;0.55;60.52
76074;BME280;64776;42.636;24.358;2024-01-30T12:56:44;91633.94;;;0.56;60.53
76074;BME280;64776;42.636;24.358;2024-01-30T12:59:46;91630.19;;;0.50;59.42
76074;BME280;64776;42.636;24.358;2024-01-30T13:02:48;91629.47;;;0.84;58.74
76074;BME280;64776;42.636;24.358;2024-01-30T13:05:49;91629.50;;;1.16;59.60
76074;BME280;64776;42.636;24.358;2024-01-30T13:08:49;91631.66;;;1.67;56.75
76074;BME280;64776;42.636;24.358;2024-01-30T13:11:52;91625.69;;;1.45;57.75
76074;BME280;64776;42.636;24.358;2024-01-30T13:14:53;91629.41;;;1.65;55.96
76074;BME280;64776;42.636;24.358;2024-01-30T13:17:53;91629.34;;;1.87;55.56
76074;BME280;64776;42.636;24.358;2024-01-30T13:20:54;91629.97;;;2.26;54.26
76074;BME280;64776;42.636;24.358;2024-01-30T13:23:55;91631.03;;;2.35;54.89
76074;BME280;64776;42.636;24.358;2024-01-30T13:26:58;91627.63;;;2.42;54.82
76074;BME280;64776;42.636;24.358;2024-01-30T13:29:58;91629.22;;;2.22;56.38
76074;BME280;64776;42.636;24.358;2024-01-30T13:32:59;91633.09;;;1.93;56.64
76074;BME280;64776;42.636;24.358;2024-01-30T13:36:00;91628.63;;;1.83;56.58
76074;BME280;64776;42.636;24.358;2024-01-30T13:39:00;91635.44;;;1.48;57.89
76074;BME280;64776;42.636;24.358;2024-01-30T13:42:03;91628.63;;;1.76;56.98
76074;BME280;64776;42.636;24.358;2024-01-30T13:45:05;91621.09;;;1.78;56.93
76074;BME280;64776;42.636;24.358;2024-01-30T13:48:06;91619.00;;;2.31;57.26
76074;BME280;64776;42.636;24.358;2024-01-30T13:51:07;91625.16;;;2.79;54.70
76074;BME280;64776;42.636;24.358;2024-01-30T13:54:08;91628.16;;;2.81;54.91
76074;BME280;64776;42.636;24.358;2024-01-30T13:57:10;91623.69;;;2.71;53.73
76074;BME280;64776;42.636;24.358;2024-01-30T14:00:12;91618.88;;;1.73;55.22
76074;BME280;64776;42.636;24.358;2024-01-30T14:03:13;91621.47;;;1.87;57.08
76074;BME280;64776;42.636;24.358;2024-01-30T14:06:14;91620.50;;;2.39;55.31
76074;BME280;64776;42.636;24.358;2024-01-30T14:09:14;91613.19;;;2.64;53.49
76074;BME280;64776;42.636;24.358;2024-01-30T14:12:17;91619.19;;;1.96;55.90
76074;BME280;64776;42.636;24.358;2024-01-30T14:15:18;91618.94;;;1.51;55.58
76074;BME280;64776;42.636;24.358;2024-01-30T14:18:19;91617.06;;;1.24;55.98
76074;BME280;64776;42.636;24.358;2024-01-30T14:21:19;91618.56;;;0.51;57.42
76074;BME280;64776;42.636;24.358;2024-01-30T14:24:20;91613.63;;;0.21;58.98
76074;BME280;64776;42.636;24.358;2024-01-30T14:27:22;91607.59;;;-0.76;60.80
76074;BME280;64776;42.636;24.358;2024-01-30T14:30:23;91624.13;;;-1.19;62.52
76074;BME280;64776;42.636;24.358;2024-01-30T14:33:24;91615.53;;;-1.67;64.00
76074;BME280;64776;42.636;24.358;2024-01-30T14:36:25;91621.59;;;-2.26;65.54
76074;BME280;64776;42.636;24.358;2024-01-30T14:39:25;91614.94;;;-2.23;65.74
76074;BME280;64776;42.636;24.358;2024-01-30T14:42:28;91609.38;;;-2.52;66.87
76074;BME280;64776;42.636;24.358;2024-01-30T14:45:28;91619.63;;;-2.03;66.85
76074;BME280;64776;42.636;24.358;2024-01-30T14:48:29;91621.69;;;-1.86;66.48
76074;BME280;64776;42.636;24.358;2024-01-30T14:51:30;91625.13;;;-2.44;66.30
76074;BME280;64776;42.636;24.358;2024-01-30T14:54:30;91618.47;;;-2.38;66.79
76074;BME280;64776;42.636;24.358;2024-01-30T14:57:33;91619.38;;;-2.24;67.29
76074;BME280;64776;42.636;24.358;2024-01-30T15:00:34;91620.84;;;-2.26;67.33
76074;BME280;64776;42.636;24.358;2024-01-30T15:03:35;91623.50;;;-2.56;67.79
76074;BME280;64776;42.636;24.358;2024-01-30T15:06:35;91636.94;;;-2.54;67.92
76074;BME280;64776;42.636;24.358;2024-01-30T15:09:36;91635.28;;;-2.66;68.21
76074;BME280;64776;42.636;24.358;2024-01-30T15:12:38;91630.94;;;-2.58;67.94
76074;BME280;64776;42.636;24.358;2024-01-30T15:15:39;91639.03;;;-2.67;68.35
76074;BME280;64776;42.636;24.358;2024-01-30T15:18:40;91634.06;;;-3.01;68.93
76074;BME280;64776;42.636;24.358;2024-01-30T15:21:41;91637.78;;;-3.02;69.88
76074;BME280;64776;42.636;24.358;2024-01-30T15:24:41;91649.53;;;-3.15;70.21
76074;BME280;64776;42.636;24.358;2024-01-30T15:27:43;91645.63;;;-3.25;70.83
76074;BME280;64776;42.636;24.358;2024-01-30T15:30:44;91655.38;;;-3.22;70.18
76074;BME280;64776;42.636;24.358;2024-01-30T15:33:45;91652.25;;;-3.31;70.38
76074;BME280;64776;42.636;24.358;2024-01-30T15:36:46;91658.59;;;-3.55;71.09
76074;BME280;64776;42.636;24.358;2024-01-30T15:39:47;91668.94;;;-3.58;72.02
76074;BME280;64776;42.636;24.358;2024-01-30T15:42:49;91660.81;;;-3.76;72.35
76074;BME280;64776;42.636;24.358;2024-01-30T15:45:50;91666.06;;;-3.95;72.97
76074;BME280;64776;42.636;24.358;2024-01-30T15:48:50;91668.97;;;-4.00;72.47
76074;BME280;64776;42.636;24.358;2024-01-30T15:51:51;91673.34;;;-4.04;72.74